Aérodrome :
LOGIN :

S'inscrire | Disclaimer

   EN    FR    IT 

 










Légende :    VFR   VFR Marginal   IFR   IFR Intensif   IFR Très Intensif
Visi : 
Plafond : 
>= 8 km
>= 3000ft
5 à 8 km
1000 à 3000 ft
1500m à 5 km
500 à 1000 ft
800 à 1500m
200 à 500 ft
< 800m
< 200 ft
Symboles :   Orages  Brouillard  Fortes neiges  Fortes précipitations  Vent > 20 kt
SIGMETs :   Divers  Orages  Givrage  Turbulence  Onde Orograph.  Cendres Volcan.






- Altitude de l'aérodrome : 600 ft
- Code IATA : VIE


LOWW - Vienna Schwechat

DERNIER METAR :
  • 092050Z 16005KT 6000 FEW090 OVC100 03/02 Q1009 TEMPO TL2200 4500 BR

METARs EXPIRÉS :
  • 092020Z 15006KT 9000 FEW078 BKN090 03/02 Q1008 TEMPO 4500 BR
  • 091950Z 11003KT CAVOK 03/02 Q1008 BECMG 17007KT
  • 091920Z 10003KT 060V130 CAVOK 04/03 Q1008 TEMPO 19007KT
  • 091850Z 13006KT 100V160 CAVOK 04/03 Q1008 TEMPO 19007KT
  • 091820Z 18004KT 120V250 CAVOK 06/03 Q1008 NOSIG

TAF TAF LOWW
Valide du 09 à 21h jusqu'au 11 à 03h UTC


092015Z 0921/1103 20005KT CAVOK TX06/1012Z TNM01/1103Z
BECMG 0923/1001 30012KT 9999 BKN035
TEMPO 1001/1015 33015G25KT
BECMG 1015/1018 31009KT CAVOK



MET'MAP, la Météo Aéronautique d'un coup d'oeil ! - Copyright ORBIFLY Décembre 2007 - Disclaimer

ORBIFLY MET'MAP TEAM :

Programmation & Développement : Alexandra Zaïnal
Sur une idée originale de : Baudouin d'Aumeries
Assistance à la programmation : Marc-Olivier Méhu
Soutien technique & logistique : Manuel Goepfert

Contact : metmap@orbifly.com




SOURCES & CREDITS :

   NOAA